createdAt,value
2022-11-23T00:00:51.784Z,11.73
2022-11-23T00:03:20.118Z,19.80
2022-11-23T00:05:49.867Z,18.07
2022-11-23T00:08:18.190Z,22.53
2022-11-23T00:10:46.519Z,19.30
2022-11-23T00:13:14.882Z,17.33
2022-11-23T00:15:43.188Z,20.30
2022-11-23T00:18:11.524Z,11.13
2022-11-23T00:20:40.946Z,15.37
2022-11-23T00:23:10.676Z,17.97
2022-11-23T00:25:39.105Z,20.20
2022-11-23T00:28:07.925Z,17.80
2022-11-23T00:30:36.273Z,17.40
2022-11-23T00:33:04.597Z,12.00
2022-11-23T00:35:32.988Z,22.23
2022-11-23T00:38:01.310Z,19.93
2022-11-23T00:40:31.039Z,20.13
2022-11-23T00:42:59.484Z,11.77
2022-11-23T00:45:27.856Z,21.10
2022-11-23T00:47:56.276Z,16.43
2022-11-23T00:50:24.722Z,19.37
2022-11-23T00:52:53.156Z,20.83
2022-11-23T00:55:21.533Z,14.47
2022-11-23T00:57:51.291Z,19.70
2022-11-23T01:00:19.843Z,16.20
2022-11-23T01:02:48.192Z,19.13
2022-11-23T01:05:16.613Z,18.90
2022-11-23T01:07:44.985Z,20.10
2022-11-23T01:10:13.516Z,20.50
2022-11-23T01:12:42.089Z,17.83
2022-11-23T01:15:12.224Z,18.97
2022-11-23T01:17:40.552Z,17.20
2022-11-23T01:20:10.036Z,19.40
2022-11-23T01:22:38.468Z,16.67
2022-11-23T01:25:07.384Z,12.60
2022-11-23T01:27:35.778Z,15.47
2022-11-23T01:30:04.153Z,15.67
2022-11-23T01:32:33.855Z,18.50
2022-11-23T01:35:02.227Z,17.07
2022-11-23T01:37:30.669Z,16.43
2022-11-23T01:39:58.978Z,18.30
2022-11-23T01:42:41.007Z,13.70
2022-11-23T01:45:33.727Z,11.13
2022-11-23T01:48:03.679Z,17.63
2022-11-23T01:50:32.159Z,18.97
2022-11-23T01:53:00.516Z,17.63
2022-11-23T01:55:29.208Z,17.70
2022-11-23T01:57:57.586Z,16.30
2022-11-23T02:00:26.018Z,16.77
2022-11-23T02:02:57.176Z,15.27
2022-11-23T02:05:27.887Z,15.17
2022-11-23T02:07:56.323Z,11.90
2022-11-23T02:10:24.880Z,12.93
2022-11-23T02:12:53.210Z,17.40
2022-11-23T02:15:21.498Z,15.40
2022-11-23T02:17:49.842Z,14.57
2022-11-23T02:20:19.588Z,18.90
2022-11-23T02:22:57.043Z,21.80
2022-11-23T02:25:30.145Z,20.70
2022-11-23T02:27:59.926Z,14.53
2022-11-23T02:30:28.705Z,14.47
2022-11-23T02:32:57.158Z,18.10
2022-11-23T02:35:25.584Z,16.23
2022-11-23T02:37:54.788Z,16.17
2022-11-23T02:40:27.259Z,15.63
2022-11-23T02:45:45.060Z,15.67
2022-11-23T02:50:59.131Z,13.80
2022-11-23T02:53:27.501Z,15.60
2022-11-23T02:55:55.869Z,18.53
2022-11-23T02:58:24.179Z,17.83
2022-11-23T03:00:53.927Z,15.63
2022-11-23T03:03:22.285Z,16.40
2022-11-23T03:05:50.664Z,19.30
2022-11-23T03:08:19.021Z,20.77
2022-11-23T03:10:47.364Z,16.27
2022-11-23T03:13:15.621Z,16.77
2022-11-23T03:15:44.192Z,16.63
2022-11-23T03:18:13.889Z,12.73
2022-11-23T03:20:42.211Z,17.23
2022-11-23T03:23:10.508Z,18.07
2022-11-23T03:25:38.875Z,14.67
2022-11-23T03:28:07.449Z,17.03
2022-11-23T03:30:35.827Z,16.90
2022-11-23T03:33:04.212Z,15.00
2022-11-23T03:35:33.891Z,10.97
2022-11-23T03:38:02.243Z,10.23
2022-11-23T03:40:30.563Z,10.60
2022-11-23T03:42:58.933Z,13.50
2022-11-23T03:45:27.279Z,14.63
2022-11-23T03:47:55.633Z,14.33
2022-11-23T03:50:23.946Z,16.83
2022-11-23T03:52:53.791Z,11.73
2022-11-23T03:55:22.113Z,14.43
2022-11-23T03:57:50.424Z,10.30
2022-11-23T04:00:18.921Z,10.30
2022-11-23T04:02:47.308Z,15.27
2022-11-23T04:05:15.660Z,15.17
2022-11-23T04:07:44.084Z,16.90
2022-11-23T04:10:13.856Z,12.37
2022-11-23T04:12:42.233Z,15.90
2022-11-23T04:15:10.947Z,20.10
2022-11-23T04:17:39.519Z,19.80
2022-11-23T04:20:10.636Z,19.03
2022-11-23T04:22:39.025Z,20.43
2022-11-23T04:25:07.739Z,14.50
2022-11-23T04:27:37.442Z,21.03
2022-11-23T04:30:06.104Z,15.43
2022-11-23T04:32:34.506Z,23.17
2022-11-23T04:35:02.962Z,22.13
2022-11-23T04:37:31.290Z,16.17
2022-11-23T04:39:59.687Z,21.90
2022-11-23T04:42:28.277Z,22.23
2022-11-23T04:44:58.467Z,23.57
2022-11-23T04:47:27.289Z,18.50
2022-11-23T04:49:55.743Z,23.57
2022-11-23T04:52:24.110Z,23.83
2022-11-23T04:54:52.542Z,17.73
2022-11-23T04:57:20.923Z,19.93
2022-11-23T04:59:49.240Z,22.13
2022-11-23T05:02:18.960Z,21.77
2022-11-23T05:04:47.301Z,22.87
2022-11-23T05:07:15.719Z,23.60
2022-11-23T05:09:44.449Z,20.37
2022-11-23T05:12:13.096Z,19.07
2022-11-23T05:14:42.954Z,19.43
2022-11-23T05:17:11.308Z,22.27
2022-11-23T05:19:41.081Z,21.10
2022-11-23T05:22:09.445Z,13.37
2022-11-23T05:24:37.786Z,17.57
2022-11-23T05:27:06.134Z,20.20
2022-11-23T05:29:34.699Z,21.43
2022-11-23T05:32:03.262Z,21.20
2022-11-23T05:34:31.745Z,16.93
2022-11-23T05:37:01.503Z,17.53
2022-11-23T05:39:30.184Z,17.80
2022-11-23T05:41:58.876Z,18.10
2022-11-23T05:44:27.172Z,16.30
2022-11-23T05:46:55.559Z,12.33
2022-11-23T05:49:23.965Z,13.73
2022-11-23T05:51:52.509Z,18.03
2022-11-23T05:54:22.279Z,15.03
2022-11-23T05:56:50.643Z,14.30
2022-11-23T05:59:19.073Z,10.60
2022-11-23T06:01:47.431Z,9.57
2022-11-23T06:04:15.897Z,13.80
2022-11-23T06:06:44.343Z,14.40
2022-11-23T06:09:12.728Z,14.10
2022-11-23T06:11:44.187Z,13.67
2022-11-23T06:14:14.465Z,11.37
2022-11-23T06:16:43.177Z,14.53
2022-11-23T06:19:11.514Z,13.17
2022-11-23T06:21:39.888Z,10.43
2022-11-23T06:24:08.514Z,15.57
2022-11-23T06:26:36.874Z,11.90
2022-11-23T06:29:06.597Z,14.27
2022-11-23T06:31:34.911Z,13.57
2022-11-23T06:34:03.275Z,13.57
2022-11-23T06:36:31.670Z,13.20
2022-11-23T06:39:00.072Z,7.57
2022-11-23T06:41:32.387Z,10.93
2022-11-23T06:44:00.943Z,13.47
2022-11-23T06:46:30.664Z,10.57
2022-11-23T06:48:59.361Z,10.70
2022-11-23T06:51:27.730Z,15.83
2022-11-23T06:53:56.069Z,11.40
2022-11-23T06:56:24.746Z,8.70
2022-11-23T06:58:53.177Z,13.57
2022-11-23T07:01:21.538Z,14.77
2022-11-23T07:03:51.413Z,11.70
2022-11-23T07:06:19.794Z,13.53
2022-11-23T07:08:48.311Z,13.40
2022-11-23T07:11:16.645Z,14.93
2022-11-23T07:13:45.037Z,8.07
2022-11-23T07:16:13.389Z,14.53
2022-11-23T07:18:41.731Z,13.00
2022-11-23T07:21:11.457Z,15.57
2022-11-23T07:23:41.551Z,13.73
2022-11-23T07:26:10.233Z,16.30
2022-11-23T07:28:38.607Z,19.07
2022-11-23T07:31:07.177Z,16.37
2022-11-23T07:33:35.607Z,16.47
2022-11-23T07:36:04.595Z,16.70
2022-11-23T07:38:34.300Z,15.63
2022-11-23T07:41:03.767Z,14.70
2022-11-23T07:43:32.157Z,12.07
2022-11-23T07:46:00.455Z,11.53
2022-11-23T07:48:33.185Z,14.73
2022-11-23T07:51:04.492Z,11.67
2022-11-23T07:53:35.875Z,12.33
2022-11-23T07:56:04.335Z,15.53
2022-11-23T07:58:33.630Z,13.63
2022-11-23T08:01:02.231Z,11.13
2022-11-23T08:03:30.983Z,12.47
2022-11-23T08:05:59.618Z,10.93
2022-11-23T08:08:28.032Z,8.00
2022-11-23T08:10:57.906Z,9.20
2022-11-23T08:13:26.627Z,7.40
2022-11-23T08:15:56.097Z,7.40
2022-11-23T08:18:24.989Z,7.53
2022-11-23T08:20:53.531Z,5.63
2022-11-23T08:23:22.532Z,5.73
2022-11-23T08:25:50.908Z,5.80
2022-11-23T08:28:20.682Z,5.53
2022-11-23T08:30:49.818Z,6.10
2022-11-23T08:33:18.376Z,5.60
2022-11-23T08:35:46.773Z,4.50
2022-11-23T08:38:15.518Z,4.97
2022-11-23T08:40:43.897Z,3.70
2022-11-23T08:43:12.251Z,6.00
2022-11-23T08:45:42.023Z,6.00
2022-11-23T08:48:11.506Z,2.97
2022-11-23T08:50:39.934Z,6.03
2022-11-23T08:53:09.334Z,4.23
2022-11-23T08:55:37.704Z,5.40
2022-11-23T08:58:12.981Z,6.53
2022-11-23T09:00:43.480Z,7.00
2022-11-23T09:03:13.518Z,4.93
2022-11-23T09:05:48.771Z,6.77
2022-11-23T09:08:17.253Z,7.13
2022-11-23T09:10:46.101Z,5.17
2022-11-23T09:13:14.628Z,5.53
2022-11-23T09:15:44.648Z,6.17
2022-11-23T09:18:13.181Z,5.30
2022-11-23T09:20:42.045Z,6.30
2022-11-23T09:23:14.357Z,6.10
2022-11-23T09:25:47.738Z,4.63
2022-11-23T09:28:16.472Z,6.07
2022-11-23T09:30:46.269Z,5.80
2022-11-23T09:33:14.734Z,5.07
2022-11-23T09:35:44.195Z,5.80
2022-11-23T09:38:12.760Z,4.70
2022-11-23T09:40:41.979Z,6.10
2022-11-23T09:43:19.367Z,4.80
2022-11-23T09:45:51.918Z,4.73
2022-11-23T09:48:28.260Z,7.17
2022-11-23T09:50:58.498Z,4.63
2022-11-23T09:53:30.031Z,5.33
2022-11-23T09:55:59.796Z,3.00
2022-11-23T09:58:33.241Z,3.47
2022-11-23T10:01:09.384Z,5.63
2022-11-23T10:03:42.673Z,5.80
2022-11-23T10:06:18.966Z,5.30
2022-11-23T10:08:55.029Z,4.37
2022-11-23T10:11:49.177Z,4.10
2022-11-23T10:14:26.381Z,5.30
2022-11-23T10:17:04.533Z,3.63
2022-11-23T10:19:40.199Z,2.40
2022-11-23T10:22:12.536Z,5.27
2022-11-23T10:24:44.624Z,4.90
2022-11-23T10:27:16.449Z,3.10
2022-11-23T10:29:45.081Z,5.30
2022-11-23T10:32:22.790Z,4.47
2022-11-23T10:34:56.532Z,4.50
2022-11-23T10:37:25.071Z,4.17
2022-11-23T10:39:53.774Z,3.57
2022-11-23T10:42:25.257Z,4.37
2022-11-23T10:44:55.029Z,6.27
2022-11-23T10:47:38.090Z,4.47
2022-11-23T10:50:21.264Z,3.97
2022-11-23T10:52:52.092Z,3.10
2022-11-23T10:55:24.627Z,4.10
2022-11-23T10:57:53.163Z,4.97
2022-11-23T11:00:27.206Z,4.90
2022-11-23T11:03:00.590Z,6.17
2022-11-23T11:08:23.433Z,5.83
2022-11-23T11:10:58.848Z,4.30
2022-11-23T11:13:30.145Z,6.47
2022-11-23T11:16:02.315Z,5.90
2022-11-23T11:18:34.035Z,4.00
2022-11-23T11:21:04.608Z,6.67
2022-11-23T11:23:33.352Z,5.13
2022-11-23T11:26:13.880Z,6.00
2022-11-23T11:28:43.707Z,5.53
2022-11-23T11:31:28.276Z,4.70
2022-11-23T11:34:02.784Z,5.70
2022-11-23T11:36:36.305Z,6.07
2022-11-23T11:39:18.343Z,5.47
2022-11-23T11:41:49.295Z,2.50
2022-11-23T11:44:25.840Z,5.30
2022-11-23T11:46:58.753Z,5.27
2022-11-23T11:49:37.159Z,5.00
2022-11-23T11:52:08.273Z,5.47
2022-11-23T11:54:39.486Z,5.53
2022-11-23T11:57:12.274Z,5.37
2022-11-23T11:59:43.697Z,4.73
2022-11-23T12:02:19.944Z,5.17
2022-11-23T12:04:52.845Z,4.40
2022-11-23T12:07:26.224Z,5.03
2022-11-23T12:09:57.804Z,4.37
2022-11-23T12:12:29.781Z,3.83
2022-11-23T12:14:58.948Z,3.00
2022-11-23T12:17:45.380Z,5.17
2022-11-23T12:20:19.726Z,4.33
2022-11-23T12:22:55.862Z,4.90
2022-11-23T12:25:33.626Z,5.97
2022-11-23T12:28:09.349Z,4.53
2022-11-23T12:30:42.483Z,3.77
2022-11-23T12:33:32.780Z,4.87
2022-11-23T12:36:17.884Z,4.20
2022-11-23T12:38:55.842Z,5.63
2022-11-23T12:41:27.014Z,4.80
2022-11-23T12:44:02.858Z,4.67
2022-11-23T12:46:36.972Z,3.73
2022-11-23T12:49:12.770Z,4.47
2022-11-23T12:51:47.537Z,3.97
2022-11-23T12:54:24.722Z,4.60
2022-11-23T12:57:00.392Z,3.30
2022-11-23T12:59:42.007Z,4.37
2022-11-23T13:02:13.666Z,4.07
2022-11-23T13:05:00.800Z,3.10
2022-11-23T13:07:53.874Z,4.30
2022-11-23T13:10:39.246Z,3.93
2022-11-23T13:13:15.887Z,3.17
2022-11-23T13:15:55.404Z,3.30
2022-11-23T13:18:30.041Z,2.93
2022-11-23T13:21:05.859Z,3.43
2022-11-23T13:23:37.246Z,4.00
2022-11-23T13:26:21.189Z,4.03
2022-11-23T13:28:50.622Z,4.03
2022-11-23T13:31:20.964Z,3.90
2022-11-23T13:33:55.187Z,3.90
2022-11-23T13:37:10.625Z,3.13
2022-11-23T13:39:54.559Z,2.30
2022-11-23T13:42:25.747Z,3.40
2022-11-23T13:45:09.051Z,4.40
2022-11-23T13:47:43.656Z,3.57
2022-11-23T13:50:21.233Z,3.87
2022-11-23T13:52:53.464Z,3.63
2022-11-23T13:55:23.421Z,3.37
2022-11-23T13:58:18.820Z,4.60
2022-11-23T14:00:53.059Z,4.50
2022-11-23T14:03:40.593Z,3.43
2022-11-23T14:06:15.276Z,4.90
2022-11-23T14:08:44.030Z,5.50
2022-11-23T14:11:35.738Z,4.57
2022-11-23T14:14:07.037Z,5.20
2022-11-23T14:16:47.401Z,5.97
2022-11-23T14:19:23.418Z,5.30
2022-11-23T14:21:57.708Z,5.53
2022-11-23T14:24:38.399Z,4.90
2022-11-23T14:27:45.693Z,4.53
2022-11-23T14:30:20.624Z,3.77
2022-11-23T14:32:57.755Z,3.63
2022-11-23T14:35:33.689Z,2.97
2022-11-23T14:38:17.182Z,3.87
2022-11-23T14:40:52.888Z,6.40
2022-11-23T14:43:23.190Z,4.17
2022-11-23T14:45:53.891Z,4.20
2022-11-23T14:48:23.119Z,3.50
2022-11-23T14:50:58.405Z,4.03
2022-11-23T14:53:29.392Z,4.03
2022-11-23T14:55:58.068Z,3.87
2022-11-23T14:58:30.961Z,5.40
2022-11-23T15:01:01.192Z,4.03
2022-11-23T15:06:20.248Z,3.97
2022-11-23T15:08:50.886Z,4.50
2022-11-23T15:11:22.306Z,4.40
2022-11-23T15:13:52.653Z,4.80
2022-11-23T15:16:27.738Z,4.60
2022-11-23T15:18:59.217Z,4.07
2022-11-23T15:21:28.687Z,3.73
2022-11-23T15:23:58.317Z,3.37
2022-11-23T15:29:37.785Z,3.87
2022-11-23T15:32:30.600Z,3.60
2022-11-23T15:35:02.049Z,4.47
2022-11-23T15:37:30.878Z,4.60
2022-11-23T15:39:59.859Z,3.83
2022-11-23T15:42:28.568Z,4.77
2022-11-23T15:45:02.187Z,4.70
2022-11-23T15:47:34.447Z,5.17
2022-11-23T15:50:03.968Z,5.67
2022-11-23T15:52:35.983Z,5.20
2022-11-23T15:55:09.396Z,5.40
2022-11-23T15:57:39.623Z,5.80
2022-11-23T16:00:11.021Z,5.53
2022-11-23T16:02:39.529Z,4.53
2022-11-23T16:05:14.520Z,4.67
2022-11-23T16:07:52.865Z,6.40
2022-11-23T16:10:22.355Z,6.30
2022-11-23T16:12:52.879Z,5.23
2022-11-23T16:15:49.569Z,4.03
2022-11-23T16:18:22.521Z,5.50
2022-11-23T16:20:56.305Z,6.13
2022-11-23T16:23:25.912Z,4.60
2022-11-23T16:26:01.705Z,5.13
2022-11-23T16:28:31.281Z,7.53
2022-11-23T16:31:00.122Z,7.37
2022-11-23T16:33:31.614Z,6.13
2022-11-23T16:36:00.201Z,8.00
2022-11-23T16:38:28.668Z,9.07
2022-11-23T16:40:57.100Z,6.50
2022-11-23T16:43:25.433Z,6.90
2022-11-23T16:45:53.947Z,9.73
2022-11-23T16:48:43.486Z,8.37
2022-11-23T16:51:15.921Z,10.43
2022-11-23T16:56:33.933Z,9.90
2022-11-23T16:59:02.487Z,10.90
2022-11-23T17:01:32.576Z,12.47
2022-11-23T17:04:01.187Z,13.03
2022-11-23T17:06:30.998Z,8.50
2022-11-23T17:09:04.707Z,11.20
2022-11-23T17:11:37.121Z,13.13
2022-11-23T17:14:06.138Z,10.30
2022-11-23T17:16:35.174Z,12.33
2022-11-23T17:19:03.660Z,11.80
2022-11-23T17:21:33.408Z,10.40
2022-11-23T17:24:01.748Z,9.77
2022-11-23T17:26:34.853Z,6.17
2022-11-23T17:29:04.656Z,11.67
2022-11-23T17:31:33.635Z,9.83
2022-11-23T17:34:02.015Z,11.00
2022-11-23T17:36:31.553Z,12.00
2022-11-23T17:39:01.310Z,9.73
2022-11-23T17:41:29.714Z,10.20
2022-11-23T17:43:59.336Z,7.30
2022-11-23T17:46:31.641Z,10.60
2022-11-23T17:49:02.420Z,10.13
2022-11-23T17:51:31.143Z,11.10
2022-11-23T17:54:00.888Z,10.00
2022-11-23T17:56:29.437Z,6.77
2022-11-23T17:58:57.892Z,6.13
2022-11-23T18:01:26.357Z,10.23
2022-11-23T18:03:56.321Z,7.83
2022-11-23T18:06:26.189Z,9.43
2022-11-23T18:08:54.719Z,10.27
2022-11-23T18:11:25.378Z,7.47
2022-11-23T18:13:55.128Z,10.00
2022-11-23T18:16:24.796Z,6.17
2022-11-23T18:18:53.310Z,8.73
2022-11-23T18:21:21.678Z,10.67
2022-11-23T18:23:49.984Z,10.13
2022-11-23T18:26:19.985Z,9.13
2022-11-23T18:28:49.983Z,11.97
2022-11-23T18:31:18.662Z,11.20
2022-11-23T18:33:47.386Z,10.77
2022-11-23T18:36:15.862Z,9.50
2022-11-23T18:38:45.200Z,8.67
2022-11-23T18:41:14.446Z,10.93
2022-11-23T18:43:42.777Z,10.23
2022-11-23T18:46:13.081Z,11.53
2022-11-23T18:48:41.526Z,5.87
2022-11-23T18:51:11.864Z,10.70
2022-11-23T18:53:40.884Z,9.17
2022-11-23T18:56:09.972Z,11.20
2022-11-23T18:58:38.984Z,9.77
2022-11-23T19:01:13.011Z,11.57
2022-11-23T19:03:42.027Z,6.93
2022-11-23T19:06:11.924Z,10.07
2022-11-23T19:08:40.858Z,12.50
2022-11-23T19:11:09.968Z,10.53
2022-11-23T19:13:38.511Z,12.57
2022-11-23T19:16:12.850Z,9.40
2022-11-23T19:18:41.199Z,12.13
2022-11-23T19:21:13.824Z,12.83
2022-11-23T19:23:42.138Z,12.57
2022-11-23T19:26:10.574Z,11.70
2022-11-23T19:28:39.966Z,10.70
2022-11-23T19:31:13.389Z,10.50
2022-11-23T19:33:42.073Z,11.20
2022-11-23T19:36:11.573Z,11.67
2022-11-23T19:38:39.928Z,9.97
2022-11-23T19:41:08.259Z,8.27
2022-11-23T19:43:36.648Z,12.97
2022-11-23T19:46:05.640Z,10.33
2022-11-23T19:48:35.941Z,11.87
2022-11-23T19:51:05.769Z,13.17
2022-11-23T19:53:34.734Z,8.47
2022-11-23T19:56:03.606Z,10.87
2022-11-23T19:58:32.409Z,7.63
2022-11-23T20:01:01.294Z,11.17
2022-11-23T20:03:29.712Z,8.80
2022-11-23T20:06:00.512Z,11.83
2022-11-23T20:08:29.183Z,9.77
2022-11-23T20:10:57.651Z,10.20
2022-11-23T20:13:26.268Z,8.17
2022-11-23T20:15:55.479Z,8.87
2022-11-23T20:18:28.418Z,8.80
2022-11-23T20:20:58.230Z,6.77
2022-11-23T20:23:28.052Z,8.93
2022-11-23T20:25:57.851Z,7.27
2022-11-23T20:28:26.362Z,7.60
2022-11-23T20:30:54.801Z,7.63
2022-11-23T20:33:23.322Z,7.73
2022-11-23T20:35:51.770Z,6.80
2022-11-23T20:38:20.124Z,9.07
2022-11-23T20:40:50.570Z,6.83
2022-11-23T20:43:18.916Z,9.07
2022-11-23T20:45:47.307Z,8.23
2022-11-23T20:48:15.661Z,8.97
2022-11-23T20:50:44.061Z,8.43
2022-11-23T20:53:12.457Z,8.13
2022-11-23T20:55:40.861Z,7.70
2022-11-23T20:58:10.810Z,7.20
2022-11-23T21:00:39.226Z,5.00
2022-11-23T21:03:08.592Z,6.37
2022-11-23T21:05:37.001Z,6.63
2022-11-23T21:08:05.421Z,7.30
2022-11-23T21:10:51.927Z,6.90
2022-11-23T21:13:49.172Z,4.20
2022-11-23T21:16:18.189Z,7.17
2022-11-23T21:18:46.557Z,7.47
2022-11-23T21:21:14.887Z,7.83
2022-11-23T21:23:45.229Z,4.27
2022-11-23T21:26:16.722Z,6.57
2022-11-23T21:28:46.535Z,6.20
2022-11-23T21:31:15.756Z,6.00
2022-11-23T21:33:44.609Z,5.97
2022-11-23T21:36:12.953Z,5.00
2022-11-23T21:38:41.580Z,6.10
2022-11-23T21:41:11.413Z,4.17
2022-11-23T21:43:39.820Z,5.90
2022-11-23T21:46:10.564Z,5.47
2022-11-23T21:48:39.595Z,6.57
2022-11-23T21:51:09.250Z,6.33
2022-11-23T21:53:39.087Z,5.23
2022-11-23T21:56:08.869Z,5.80
2022-11-23T21:58:37.347Z,6.43
2022-11-23T22:01:06.830Z,5.13
2022-11-23T22:03:38.941Z,6.73
2022-11-23T22:06:08.115Z,7.10
2022-11-23T22:08:36.763Z,5.33
2022-11-23T22:11:10.846Z,6.37
2022-11-23T22:13:39.975Z,5.10
2022-11-23T22:16:15.911Z,6.40
2022-11-23T22:18:45.904Z,6.43
2022-11-23T22:21:14.427Z,5.37
2022-11-23T22:23:43.169Z,5.43
2022-11-23T22:26:12.786Z,4.00
2022-11-23T22:28:42.296Z,4.60
2022-11-23T22:31:12.372Z,5.80
2022-11-23T22:33:41.141Z,5.13
2022-11-23T22:36:13.389Z,3.43
2022-11-23T22:38:41.930Z,6.33
2022-11-23T22:41:11.373Z,5.30
2022-11-23T22:43:40.055Z,7.63
2022-11-23T22:46:09.641Z,6.27
2022-11-23T22:48:38.373Z,4.17
2022-11-23T22:51:07.242Z,5.77
2022-11-23T22:53:44.277Z,7.60
2022-11-23T22:56:14.144Z,8.17
2022-11-23T22:58:42.810Z,9.37
2022-11-23T23:01:12.249Z,7.97
2022-11-23T23:03:40.755Z,7.33
2022-11-23T23:06:10.351Z,7.53
2022-11-23T23:08:40.180Z,3.97
2022-11-23T23:11:09.090Z,7.67
2022-11-23T23:13:37.697Z,8.23
2022-11-23T23:16:07.039Z,7.57
2022-11-23T23:18:35.403Z,7.40
2022-11-23T23:21:04.649Z,8.40
2022-11-23T23:23:32.999Z,8.00
2022-11-23T23:26:02.726Z,7.93
2022-11-23T23:28:31.135Z,7.23
2022-11-23T23:31:01.354Z,6.73
2022-11-23T23:33:29.784Z,6.93
2022-11-23T23:35:58.173Z,5.43
2022-11-23T23:38:27.481Z,6.60
2022-11-23T23:40:56.183Z,4.77
2022-11-23T23:43:25.893Z,5.27
2022-11-23T23:45:57.627Z,5.50
2022-11-23T23:48:26.373Z,6.27
2022-11-23T23:50:54.651Z,4.30
2022-11-23T23:53:22.988Z,5.83
2022-11-23T23:55:58.333Z,6.03
2022-11-23T23:58:28.162Z,6.63
